sensor_id;sensor_type;location;lat;lon;timestamp;pressure;altitude;pressure_sealevel;temperature;humidity
70407;BME280;57821;52.202;0.154;2022-07-21T00:01:57;101878.22;;;22.44;58.54
70407;BME280;57821;52.202;0.154;2022-07-21T00:04:24;101878.38;;;22.39;58.37
70407;BME280;57821;52.202;0.154;2022-07-21T00:06:51;101846.56;;;22.18;58.91
70407;BME280;57821;52.202;0.154;2022-07-21T00:09:18;101885.66;;;22.33;58.47
70407;BME280;57821;52.202;0.154;2022-07-21T00:11:44;101883.13;;;22.30;58.50
70407;BME280;57821;52.202;0.154;2022-07-21T00:14:11;101868.47;;;22.20;58.56
70407;BME280;57821;52.202;0.154;2022-07-21T00:16:39;101870.25;;;22.19;58.56
70407;BME280;57821;52.202;0.154;2022-07-21T00:19:07;101879.00;;;22.21;58.97
70407;BME280;57821;52.202;0.154;2022-07-21T00:21:34;101875.50;;;22.21;58.70
70407;BME280;57821;52.202;0.154;2022-07-21T00:24:01;101861.63;;;22.14;58.98
70407;BME280;57821;52.202;0.154;2022-07-21T00:26:28;101872.84;;;22.21;59.27
70407;BME280;57821;52.202;0.154;2022-07-21T00:28:55;101876.41;;;22.20;58.81
70407;BME280;57821;52.202;0.154;2022-07-21T00:31:22;101859.97;;;22.11;59.17
70407;BME280;57821;52.202;0.154;2022-07-21T00:33:49;101875.53;;;22.19;59.13
70407;BME280;57821;52.202;0.154;2022-07-21T00:36:15;101869.53;;;22.16;59.39
70407;BME280;57821;52.202;0.154;2022-07-21T00:38:42;101870.38;;;22.16;59.55
70407;BME280;57821;52.202;0.154;2022-07-21T00:41:12;101853.88;;;22.09;59.61
70407;BME280;57821;52.202;0.154;2022-07-21T00:43:39;101871.25;;;22.17;59.75
70407;BME280;57821;52.202;0.154;2022-07-21T00:46:05;101875.66;;;22.16;59.61
70407;BME280;57821;52.202;0.154;2022-07-21T00:48:32;101869.84;;;22.06;59.47
70407;BME280;57821;52.202;0.154;2022-07-21T00:50:59;101879.47;;;22.07;59.83
70407;BME280;57821;52.202;0.154;2022-07-21T00:53:25;101873.41;;;22.05;59.74
70407;BME280;57821;52.202;0.154;2022-07-21T00:55:52;101864.84;;;21.97;59.90
70407;BME280;57821;52.202;0.154;2022-07-21T00:58:19;101874.41;;;22.01;60.32
70407;BME280;57821;52.202;0.154;2022-07-21T01:00:46;101878.88;;;21.99;60.23
70407;BME280;57821;52.202;0.154;2022-07-21T01:03:13;101881.59;;;21.96;60.78
70407;BME280;57821;52.202;0.154;2022-07-21T01:05:39;101874.63;;;21.95;60.66
70407;BME280;57821;52.202;0.154;2022-07-21T01:08:06;101872.03;;;21.92;60.59
70407;BME280;57821;52.202;0.154;2022-07-21T01:10:33;101873.84;;;21.90;60.45
70407;BME280;57821;52.202;0.154;2022-07-21T01:13:00;101874.84;;;21.88;60.58
70407;BME280;57821;52.202;0.154;2022-07-21T01:15:27;101879.25;;;21.87;60.42
70407;BME280;57821;52.202;0.154;2022-07-21T01:17:54;101873.97;;;21.87;60.80
70407;BME280;57821;52.202;0.154;2022-07-21T01:20:22;101879.25;;;21.87;60.73
70407;BME280;57821;52.202;0.154;2022-07-21T01:22:52;101829.94;;;21.61;60.86
70407;BME280;57821;52.202;0.154;2022-07-21T01:25:19;101870.50;;;21.85;61.21
70407;BME280;57821;52.202;0.154;2022-07-21T01:27:47;101879.44;;;21.81;61.55
70407;BME280;57821;52.202;0.154;2022-07-21T01:30:14;101856.91;;;21.71;61.63
70407;BME280;57821;52.202;0.154;2022-07-21T01:32:41;101871.69;;;21.77;61.41
70407;BME280;57821;52.202;0.154;2022-07-21T01:35:11;101871.09;;;21.67;61.48
70407;BME280;57821;52.202;0.154;2022-07-21T01:37:42;101861.38;;;21.69;61.92
70407;BME280;57821;52.202;0.154;2022-07-21T01:40:09;101864.00;;;21.69;61.08
70407;BME280;57821;52.202;0.154;2022-07-21T01:42:36;101859.91;;;21.60;61.18
70407;BME280;57821;52.202;0.154;2022-07-21T01:45:04;101860.75;;;21.61;61.48
70407;BME280;57821;52.202;0.154;2022-07-21T01:47:32;101859.03;;;21.60;61.74
70407;BME280;57821;52.202;0.154;2022-07-21T01:49:59;101863.50;;;21.58;61.77
70407;BME280;57821;52.202;0.154;2022-07-21T01:52:25;101864.41;;;21.57;62.27
70407;BME280;57821;52.202;0.154;2022-07-21T01:54:52;101863.59;;;21.55;62.43
70407;BME280;57821;52.202;0.154;2022-07-21T01:57:18;101867.19;;;21.52;62.28
70407;BME280;57821;52.202;0.154;2022-07-21T01:59:45;101866.34;;;21.50;61.92
70407;BME280;57821;52.202;0.154;2022-07-21T02:02:12;101868.13;;;21.50;62.46
70407;BME280;57821;52.202;0.154;2022-07-21T02:04:38;101871.72;;;21.49;62.11
70407;BME280;57821;52.202;0.154;2022-07-21T02:07:05;101875.13;;;21.51;62.29
70407;BME280;57821;52.202;0.154;2022-07-21T02:09:32;101885.69;;;21.51;62.42
70407;BME280;57821;52.202;0.154;2022-07-21T02:11:58;101885.69;;;21.51;61.92
70407;BME280;57821;52.202;0.154;2022-07-21T02:14:25;101883.97;;;21.50;62.10
70407;BME280;57821;52.202;0.154;2022-07-21T02:16:51;101874.53;;;21.43;61.89
70407;BME280;57821;52.202;0.154;2022-07-21T02:19:18;101887.53;;;21.49;61.90
70407;BME280;57821;52.202;0.154;2022-07-21T02:21:45;101887.53;;;21.49;60.94
70407;BME280;57821;52.202;0.154;2022-07-21T02:24:11;101889.25;;;21.50;60.26
70407;BME280;57821;52.202;0.154;2022-07-21T02:26:38;101893.56;;;21.52;60.33
70407;BME280;57821;52.202;0.154;2022-07-21T02:29:04;101897.03;;;21.54;59.78
70407;BME280;57821;52.202;0.154;2022-07-21T02:31:31;101877.19;;;21.43;59.64
70407;BME280;57821;52.202;0.154;2022-07-21T02:33:58;101888.25;;;21.54;59.36
70407;BME280;57821;52.202;0.154;2022-07-21T02:36:24;101894.44;;;21.53;59.21
70407;BME280;57821;52.202;0.154;2022-07-21T02:38:51;101896.22;;;21.52;58.78
70407;BME280;57821;52.202;0.154;2022-07-21T02:41:18;101895.25;;;21.55;58.60
70407;BME280;57821;52.202;0.154;2022-07-21T02:43:45;101873.59;;;21.44;57.92
70407;BME280;57821;52.202;0.154;2022-07-21T02:46:11;101885.69;;;21.51;58.04
70407;BME280;57821;52.202;0.154;2022-07-21T02:48:38;101884.81;;;21.50;57.68
70407;BME280;57821;52.202;0.154;2022-07-21T02:51:05;101879.63;;;21.49;57.46
70407;BME280;57821;52.202;0.154;2022-07-21T02:53:34;101879.63;;;21.49;57.64
70407;BME280;57821;52.202;0.154;2022-07-21T02:56:01;101877.94;;;21.46;57.58
70407;BME280;57821;52.202;0.154;2022-07-21T02:58:29;101885.69;;;21.51;57.47
70407;BME280;57821;52.202;0.154;2022-07-21T03:01:01;101826.22;;;21.11;57.81
70407;BME280;57821;52.202;0.154;2022-07-21T03:03:31;101839.16;;;21.20;57.45
70407;BME280;57821;52.202;0.154;2022-07-21T03:05:59;101895.25;;;21.55;57.26
70407;BME280;57821;52.202;0.154;2022-07-21T03:08:26;101884.91;;;21.49;57.34
70407;BME280;57821;52.202;0.154;2022-07-21T03:10:53;101893.41;;;21.57;57.38
70407;BME280;57821;52.202;0.154;2022-07-21T03:13:20;101893.41;;;21.57;57.64
70407;BME280;57821;52.202;0.154;2022-07-21T03:15:47;101885.81;;;21.48;57.49
70407;BME280;57821;52.202;0.154;2022-07-21T03:18:14;101903.06;;;21.58;57.12
70407;BME280;57821;52.202;0.154;2022-07-21T03:20:42;101863.44;;;21.32;57.29
70407;BME280;57821;52.202;0.154;2022-07-21T03:23:09;101904.09;;;21.54;57.54
70407;BME280;57821;52.202;0.154;2022-07-21T03:25:36;101913.63;;;21.58;57.48
70407;BME280;57821;52.202;0.154;2022-07-21T03:28:03;101918.91;;;21.58;57.33
70407;BME280;57821;52.202;0.154;2022-07-21T03:30:30;101917.13;;;21.58;57.77
70407;BME280;57821;52.202;0.154;2022-07-21T03:32:57;101918.91;;;21.58;57.28
70407;BME280;57821;52.202;0.154;2022-07-21T03:35:24;101920.63;;;21.59;57.38
70407;BME280;57821;52.202;0.154;2022-07-21T03:37:57;101881.69;;;21.38;57.37
70407;BME280;57821;52.202;0.154;2022-07-21T03:40:26;101913.81;;;21.52;57.36
70407;BME280;57821;52.202;0.154;2022-07-21T03:42:54;101929.47;;;21.58;57.75
70407;BME280;57821;52.202;0.154;2022-07-21T03:45:22;101923.31;;;21.57;57.55
70407;BME280;57821;52.202;0.154;2022-07-21T03:47:49;101908.66;;;21.49;57.24
70407;BME280;57821;52.202;0.154;2022-07-21T03:50:16;101919.84;;;21.55;56.49
70407;BME280;57821;52.202;0.154;2022-07-21T03:52:44;101921.78;;;21.50;56.73
70407;BME280;57821;52.202;0.154;2022-07-21T03:55:11;101921.84;;;21.49;56.28
70407;BME280;57821;52.202;0.154;2022-07-21T03:57:42;101929.75;;;21.49;56.86
70407;BME280;57821;52.202;0.154;2022-07-21T04:00:15;101880.50;;;21.20;56.34
70407;BME280;57821;52.202;0.154;2022-07-21T04:02:42;101914.22;;;21.38;56.90
70407;BME280;57821;52.202;0.154;2022-07-21T04:05:13;101938.56;;;21.48;56.56
70407;BME280;57821;52.202;0.154;2022-07-21T04:07:41;101934.22;;;21.47;56.91
70407;BME280;57821;52.202;0.154;2022-07-21T04:10:10;101938.56;;;21.48;56.74
70407;BME280;57821;52.202;0.154;2022-07-21T04:12:37;101943.84;;;21.48;57.04
70407;BME280;57821;52.202;0.154;2022-07-21T04:15:08;101882.44;;;21.13;56.53
70407;BME280;57821;52.202;0.154;2022-07-21T04:17:36;101935.09;;;21.46;56.33
70407;BME280;57821;52.202;0.154;2022-07-21T04:20:04;101936.09;;;21.43;56.53
70407;BME280;57821;52.202;0.154;2022-07-21T04:22:31;101944.94;;;21.41;56.25
70407;BME280;57821;52.202;0.154;2022-07-21T04:24:58;101950.22;;;21.41;56.47
70407;BME280;57821;52.202;0.154;2022-07-21T04:27:25;101952.91;;;21.39;56.51
70407;BME280;57821;52.202;0.154;2022-07-21T04:29:51;101960.00;;;21.37;56.57
70407;BME280;57821;52.202;0.154;2022-07-21T04:32:18;101946.19;;;21.27;56.58
70407;BME280;57821;52.202;0.154;2022-07-21T04:34:44;101939.31;;;21.23;56.55
70407;BME280;57821;52.202;0.154;2022-07-21T04:37:11;101963.59;;;21.35;56.79
70407;BME280;57821;52.202;0.154;2022-07-21T04:39:38;101951.59;;;21.24;56.91
70407;BME280;57821;52.202;0.154;2022-07-21T04:42:04;101977.78;;;21.30;56.80
70407;BME280;57821;52.202;0.154;2022-07-21T04:44:31;101976.06;;;21.29;56.48
70407;BME280;57821;52.202;0.154;2022-07-21T04:46:58;101976.06;;;21.29;57.10
70407;BME280;57821;52.202;0.154;2022-07-21T04:49:24;101978.72;;;21.28;57.18
70407;BME280;57821;52.202;0.154;2022-07-21T04:51:51;101984.00;;;21.28;56.75
70407;BME280;57821;52.202;0.154;2022-07-21T04:54:18;101945.00;;;21.08;57.23
70407;BME280;57821;52.202;0.154;2022-07-21T04:56:44;101983.97;;;21.29;57.26
70407;BME280;57821;52.202;0.154;2022-07-21T04:59:11;101984.84;;;21.30;56.94
70407;BME280;57821;52.202;0.154;2022-07-21T05:01:38;101984.78;;;21.32;56.96
70407;BME280;57821;52.202;0.154;2022-07-21T05:04:06;101989.13;;;21.33;57.24
70407;BME280;57821;52.202;0.154;2022-07-21T05:06:33;101985.63;;;21.32;56.80
70407;BME280;57821;52.202;0.154;2022-07-21T05:09:00;101994.41;;;21.33;57.03
70407;BME280;57821;52.202;0.154;2022-07-21T05:11:26;101983.13;;;21.27;57.08
70407;BME280;57821;52.202;0.154;2022-07-21T05:13:53;101991.69;;;21.36;57.38
70407;BME280;57821;52.202;0.154;2022-07-21T05:16:21;101994.31;;;21.37;57.74
70407;BME280;57821;52.202;0.154;2022-07-21T05:18:47;101995.34;;;21.32;57.64
70407;BME280;57821;52.202;0.154;2022-07-21T05:21:14;102013.59;;;21.38;57.26
70407;BME280;57821;52.202;0.154;2022-07-21T05:23:41;102016.19;;;21.41;58.06
70407;BME280;57821;52.202;0.154;2022-07-21T05:26:08;102009.09;;;21.43;58.02
70407;BME280;57821;52.202;0.154;2022-07-21T05:28:34;102020.56;;;21.42;57.07
70407;BME280;57821;52.202;0.154;2022-07-21T05:31:01;102005.63;;;21.41;57.36
70407;BME280;57821;52.202;0.154;2022-07-21T05:33:27;102021.34;;;21.44;57.36
70407;BME280;57821;52.202;0.154;2022-07-21T05:35:54;102016.19;;;21.41;57.65
70407;BME280;57821;52.202;0.154;2022-07-21T05:38:21;102027.56;;;21.43;57.47
70407;BME280;57821;52.202;0.154;2022-07-21T05:40:53;102025.81;;;21.42;57.31
70407;BME280;57821;52.202;0.154;2022-07-21T05:43:20;102039.03;;;21.42;57.10
70407;BME280;57821;52.202;0.154;2022-07-21T05:48:10;102025.09;;;21.37;57.24
70407;BME280;57821;52.202;0.154;2022-07-21T05:50:37;102033.63;;;21.45;57.12
70407;BME280;57821;52.202;0.154;2022-07-21T05:53:03;102028.28;;;21.48;57.03
70407;BME280;57821;52.202;0.154;2022-07-21T05:55:30;102022.00;;;21.52;57.13
70407;BME280;57821;52.202;0.154;2022-07-21T05:57:57;102015.00;;;21.51;57.10
70407;BME280;57821;52.202;0.154;2022-07-21T06:00:23;102027.94;;;21.60;57.08
70407;BME280;57821;52.202;0.154;2022-07-21T06:02:50;102034.75;;;21.67;57.32
70407;BME280;57821;52.202;0.154;2022-07-21T06:05:16;102030.28;;;21.69;57.03
70407;BME280;57821;52.202;0.154;2022-07-21T06:07:43;102039.66;;;21.79;56.50
70407;BME280;57821;52.202;0.154;2022-07-21T06:10:10;102040.53;;;21.80;56.20
70407;BME280;57821;52.202;0.154;2022-07-21T06:12:41;102040.38;;;21.84;56.30
70407;BME280;57821;52.202;0.154;2022-07-21T06:15:08;102043.78;;;21.89;56.77
70407;BME280;57821;52.202;0.154;2022-07-21T06:17:42;102043.63;;;21.94;56.63
70407;BME280;57821;52.202;0.154;2022-07-21T06:20:11;102007.22;;;21.76;56.11
70407;BME280;57821;52.202;0.154;2022-07-21T06:22:38;102050.34;;;22.05;56.19
70407;BME280;57821;52.202;0.154;2022-07-21T06:25:05;102045.81;;;22.09;55.68
70407;BME280;57821;52.202;0.154;2022-07-21T06:27:32;102057.97;;;22.15;56.13
70407;BME280;57821;52.202;0.154;2022-07-21T06:29:58;102057.09;;;22.14;56.23
70407;BME280;57821;52.202;0.154;2022-07-21T06:32:25;102062.97;;;22.24;55.50
70407;BME280;57821;52.202;0.154;2022-07-21T06:34:52;102052.28;;;22.27;55.93
70407;BME280;57821;52.202;0.154;2022-07-21T06:37:19;102060.94;;;22.32;55.10
70407;BME280;57821;52.202;0.154;2022-07-21T06:39:47;102069.69;;;22.34;55.29
70407;BME280;57821;52.202;0.154;2022-07-21T06:42:13;102061.81;;;22.32;54.88
70407;BME280;57821;52.202;0.154;2022-07-21T06:44:41;102074.03;;;22.36;55.01
70407;BME280;57821;52.202;0.154;2022-07-21T06:47:07;102072.13;;;22.40;55.40
70407;BME280;57821;52.202;0.154;2022-07-21T06:49:34;102076.41;;;22.44;55.01
70407;BME280;57821;52.202;0.154;2022-07-21T06:52:01;102081.59;;;22.47;54.74
70407;BME280;57821;52.202;0.154;2022-07-21T06:54:27;102082.50;;;22.46;54.84
70407;BME280;57821;52.202;0.154;2022-07-21T06:56:54;102083.41;;;22.45;54.45
70407;BME280;57821;52.202;0.154;2022-07-21T06:59:20;102079.09;;;22.42;54.25
70407;BME280;57821;52.202;0.154;2022-07-21T07:01:47;102084.38;;;22.42;54.66
70407;BME280;57821;52.202;0.154;2022-07-21T07:04:14;102087.84;;;22.44;54.57
70407;BME280;57821;52.202;0.154;2022-07-21T07:06:41;102086.94;;;22.45;54.75
70407;BME280;57821;52.202;0.154;2022-07-21T07:09:07;102092.84;;;22.53;54.67
70407;BME280;57821;52.202;0.154;2022-07-21T07:11:34;102079.75;;;22.49;54.51
70407;BME280;57821;52.202;0.154;2022-07-21T07:14:00;102096.00;;;22.65;54.32
70407;BME280;57821;52.202;0.154;2022-07-21T07:16:43;102099.31;;;22.71;54.33
70407;BME280;57821;52.202;0.154;2022-07-21T07:19:10;102100.97;;;22.75;54.32
70407;BME280;57821;52.202;0.154;2022-07-21T07:21:36;102099.06;;;22.79;54.41
70407;BME280;57821;52.202;0.154;2022-07-21T07:24:03;102108.50;;;22.87;54.05
70407;BME280;57821;52.202;0.154;2022-07-21T07:26:30;102107.38;;;22.95;53.65
70407;BME280;57821;52.202;0.154;2022-07-21T07:28:56;102109.66;;;23.05;53.81
70407;BME280;57821;52.202;0.154;2022-07-21T07:31:23;102105.06;;;23.10;53.56
70407;BME280;57821;52.202;0.154;2022-07-21T07:33:50;102107.47;;;23.18;53.28
70407;BME280;57821;52.202;0.154;2022-07-21T07:36:17;102116.84;;;23.26;52.49
70407;BME280;57821;52.202;0.154;2022-07-21T07:38:44;102115.81;;;23.30;52.43
70407;BME280;57821;52.202;0.154;2022-07-21T07:41:11;102125.44;;;23.33;52.43
70407;BME280;57821;52.202;0.154;2022-07-21T07:43:37;102113.03;;;23.35;52.18
70407;BME280;57821;52.202;0.154;2022-07-21T07:46:04;102121.75;;;23.37;52.25
70407;BME280;57821;52.202;0.154;2022-07-21T07:48:31;102124.19;;;23.43;52.19
70407;BME280;57821;52.202;0.154;2022-07-21T07:50:57;102127.50;;;23.50;51.49
70407;BME280;57821;52.202;0.154;2022-07-21T07:53:24;102120.31;;;23.53;51.48
70407;BME280;57821;52.202;0.154;2022-07-21T07:55:50;102126.38;;;23.57;51.25
70407;BME280;57821;52.202;0.154;2022-07-21T07:58:17;102130.59;;;23.62;51.62
70407;BME280;57821;52.202;0.154;2022-07-21T08:00:44;102121.72;;;23.63;50.81
70407;BME280;57821;52.202;0.154;2022-07-21T08:03:31;102119.06;;;23.63;51.32
70407;BME280;57821;52.202;0.154;2022-07-21T08:05:58;102122.97;;;23.77;50.83
70407;BME280;57821;52.202;0.154;2022-07-21T08:08:25;102085.97;;;23.52;50.67
70407;BME280;57821;52.202;0.154;2022-07-21T08:10:52;102127.09;;;23.85;50.05
70407;BME280;57821;52.202;0.154;2022-07-21T08:13:19;102136.44;;;23.94;49.97
70407;BME280;57821;52.202;0.154;2022-07-21T08:15:46;102138.88;;;24.00;49.57
70407;BME280;57821;52.202;0.154;2022-07-21T08:18:14;102143.94;;;24.06;49.75
70407;BME280;57821;52.202;0.154;2022-07-21T08:20:41;102122.81;;;24.04;49.50
70407;BME280;57821;52.202;0.154;2022-07-21T08:23:09;102152.34;;;24.17;48.73
70407;BME280;57821;52.202;0.154;2022-07-21T08:25:38;102154.09;;;24.18;48.85
70407;BME280;57821;52.202;0.154;2022-07-21T08:28:05;102147.88;;;24.19;48.75
70407;BME280;57821;52.202;0.154;2022-07-21T08:30:32;102148.00;;;24.16;48.82
70407;BME280;57821;52.202;0.154;2022-07-21T08:32:59;102156.72;;;24.20;48.12
70407;BME280;57821;52.202;0.154;2022-07-21T08:35:27;102151.34;;;24.21;47.45
70407;BME280;57821;52.202;0.154;2022-07-21T08:38:00;102139.94;;;24.19;47.89
70407;BME280;57821;52.202;0.154;2022-07-21T08:40:28;102150.25;;;24.27;47.53
70407;BME280;57821;52.202;0.154;2022-07-21T08:42:55;102144.91;;;24.28;47.21
70407;BME280;57821;52.202;0.154;2022-07-21T08:45:23;102153.53;;;24.33;47.76
70407;BME280;57821;52.202;0.154;2022-07-21T08:47:54;102155.13;;;24.37;47.38
70407;BME280;57821;52.202;0.154;2022-07-21T08:50:27;102104.09;;;24.09;47.33
70407;BME280;57821;52.202;0.154;2022-07-21T08:52:54;102154.22;;;24.38;47.99
70407;BME280;57821;52.202;0.154;2022-07-21T08:55:36;102161.13;;;24.42;47.29
70407;BME280;57821;52.202;0.154;2022-07-21T08:58:03;102139.41;;;24.33;46.41
70407;BME280;57821;52.202;0.154;2022-07-21T09:00:33;102159.75;;;24.32;47.35
70407;BME280;57821;52.202;0.154;2022-07-21T09:03:18;102100.00;;;24.00;47.50
70407;BME280;57821;52.202;0.154;2022-07-21T09:06:07;102118.41;;;24.05;47.55
70407;BME280;57821;52.202;0.154;2022-07-21T09:11:26;102177.16;;;24.39;47.34
70407;BME280;57821;52.202;0.154;2022-07-21T09:14:10;102128.75;;;24.11;47.00
70407;BME280;57821;52.202;0.154;2022-07-21T09:16:40;102135.56;;;24.18;46.90
70407;BME280;57821;52.202;0.154;2022-07-21T09:19:37;102133.09;;;24.12;46.94
70407;BME280;57821;52.202;0.154;2022-07-21T09:22:04;102130.69;;;24.06;47.14
70407;BME280;57821;52.202;0.154;2022-07-21T09:24:36;102189.72;;;24.34;47.46
70407;BME280;57821;52.202;0.154;2022-07-21T09:27:06;102190.56;;;24.35;46.98
70407;BME280;57821;52.202;0.154;2022-07-21T09:29:36;102129.81;;;24.05;47.16
70407;BME280;57821;52.202;0.154;2022-07-21T09:34:39;102185.34;;;24.33;46.77
70407;BME280;57821;52.202;0.154;2022-07-21T09:37:07;102180.28;;;24.27;46.62
70407;BME280;57821;52.202;0.154;2022-07-21T09:39:53;102202.03;;;24.35;45.93
70407;BME280;57821;52.202;0.154;2022-07-21T09:42:25;102197.78;;;24.31;45.81
70407;BME280;57821;52.202;0.154;2022-07-21T09:44:55;102153.97;;;23.98;46.23
70407;BME280;57821;52.202;0.154;2022-07-21T09:47:23;102171.63;;;23.99;46.36
70407;BME280;57821;52.202;0.154;2022-07-21T09:49:51;102210.63;;;24.17;46.30
70407;BME280;57821;52.202;0.154;2022-07-21T09:52:42;102156.25;;;23.84;46.94
70407;BME280;57821;52.202;0.154;2022-07-21T09:55:11;102156.25;;;23.84;46.45
70407;BME280;57821;52.202;0.154;2022-07-21T09:57:39;102223.09;;;24.15;46.74
70407;BME280;57821;52.202;0.154;2022-07-21T10:00:11;102155.69;;;23.76;46.57
70407;BME280;57821;52.202;0.154;2022-07-21T10:02:45;102221.53;;;24.09;47.04
70407;BME280;57821;52.202;0.154;2022-07-21T10:05:14;102227.81;;;24.07;46.73
70407;BME280;57821;52.202;0.154;2022-07-21T10:07:44;102217.34;;;24.04;47.41
70407;BME280;57821;52.202;0.154;2022-07-21T10:10:12;102207.06;;;23.95;47.12
70407;BME280;57821;52.202;0.154;2022-07-21T10:12:39;102221.00;;;24.00;47.72
70407;BME280;57821;52.202;0.154;2022-07-21T10:15:06;102219.28;;;23.99;47.75
70407;BME280;57821;52.202;0.154;2022-07-21T10:17:33;102207.28;;;23.89;47.49
70407;BME280;57821;52.202;0.154;2022-07-21T10:20:11;102215.13;;;23.92;47.20
70407;BME280;57821;52.202;0.154;2022-07-21T10:23:18;102202.53;;;23.73;47.56
70407;BME280;57821;52.202;0.154;2022-07-21T10:25:48;102223.31;;;23.86;47.58
70407;BME280;57821;52.202;0.154;2022-07-21T10:28:18;102182.84;;;23.57;47.50
70407;BME280;57821;52.202;0.154;2022-07-21T10:30:50;102236.59;;;23.84;47.94
70407;BME280;57821;52.202;0.154;2022-07-21T10:33:20;102227.59;;;23.88;47.59
70407;BME280;57821;52.202;0.154;2022-07-21T10:35:49;102185.16;;;23.66;47.45
70407;BME280;57821;52.202;0.154;2022-07-21T10:38:31;102180.88;;;23.62;47.85
70407;BME280;57821;52.202;0.154;2022-07-21T10:40:59;102237.94;;;23.96;47.38
70407;BME280;57821;52.202;0.154;2022-07-21T10:45:56;102181.47;;;23.70;47.29
70407;BME280;57821;52.202;0.154;2022-07-21T10:51:15;102235.72;;;24.08;47.25
70407;BME280;57821;52.202;0.154;2022-07-21T10:53:42;102232.94;;;24.11;46.76
70407;BME280;57821;52.202;0.154;2022-07-21T10:56:25;102221.13;;;23.97;46.20
70407;BME280;57821;52.202;0.154;2022-07-21T10:58:52;102225.28;;;24.04;46.47
70407;BME280;57821;52.202;0.154;2022-07-21T11:01:23;102174.13;;;23.79;46.10
70407;BME280;57821;52.202;0.154;2022-07-21T11:04:12;102182.75;;;23.84;46.36
70407;BME280;57821;52.202;0.154;2022-07-21T11:06:40;102199.28;;;23.90;46.29
70407;BME280;57821;52.202;0.154;2022-07-21T11:09:09;102231.97;;;24.14;46.05
70407;BME280;57821;52.202;0.154;2022-07-21T11:11:39;102192.25;;;23.89;45.73
70407;BME280;57821;52.202;0.154;2022-07-21T11:14:14;102192.91;;;23.96;45.14
70407;BME280;57821;52.202;0.154;2022-07-21T11:24:48;102201.66;;;23.98;45.98
70407;BME280;57821;52.202;0.154;2022-07-21T11:27:17;102196.38;;;23.98;46.21
70407;BME280;57821;52.202;0.154;2022-07-21T11:29:51;102194.41;;;24.03;45.79
70407;BME280;57821;52.202;0.154;2022-07-21T11:32:19;102253.44;;;24.31;46.01
70407;BME280;57821;52.202;0.154;2022-07-21T11:34:47;102249.91;;;24.31;45.63
70407;BME280;57821;52.202;0.154;2022-07-21T11:37:17;102257.13;;;24.27;45.28
70407;BME280;57821;52.202;0.154;2022-07-21T11:40:06;102185.94;;;23.93;45.81
70407;BME280;57821;52.202;0.154;2022-07-21T11:42:34;102247.41;;;24.28;45.65
70407;BME280;57821;52.202;0.154;2022-07-21T11:45:01;102223.06;;;24.17;46.08
70407;BME280;57821;52.202;0.154;2022-07-21T11:47:28;102248.31;;;24.27;45.64
70407;BME280;57821;52.202;0.154;2022-07-21T11:49:57;102232.00;;;24.12;45.38
70407;BME280;57821;52.202;0.154;2022-07-21T11:52:29;102200.28;;;23.88;45.56
70407;BME280;57821;52.202;0.154;2022-07-21T11:54:57;102256.00;;;24.09;45.71
70407;BME280;57821;52.202;0.154;2022-07-21T11:57:25;102254.44;;;24.04;46.02
70407;BME280;57821;52.202;0.154;2022-07-21T11:59:53;102251.09;;;23.99;45.90
70407;BME280;57821;52.202;0.154;2022-07-21T12:02:25;102251.41;;;23.90;45.85
70407;BME280;57821;52.202;0.154;2022-07-21T12:04:58;102265.47;;;23.92;45.72
70407;BME280;57821;52.202;0.154;2022-07-21T12:10:05;102263.13;;;23.83;45.90
70407;BME280;57821;52.202;0.154;2022-07-21T12:12:43;102262.31;;;23.81;46.50
70407;BME280;57821;52.202;0.154;2022-07-21T12:15:17;102254.44;;;23.79;46.57
70407;BME280;57821;52.202;0.154;2022-07-21T12:18:07;102199.94;;;23.47;46.35
70407;BME280;57821;52.202;0.154;2022-07-21T12:20:35;102259.03;;;23.74;46.69
70407;BME280;57821;52.202;0.154;2022-07-21T12:25:46;102271.50;;;23.70;46.66
70407;BME280;57821;52.202;0.154;2022-07-21T12:28:19;102278.69;;;23.67;46.80
70407;BME280;57821;52.202;0.154;2022-07-21T12:30:50;102284.22;;;23.59;47.40
70407;BME280;57821;52.202;0.154;2022-07-21T12:33:19;102216.72;;;23.20;47.12
70407;BME280;57821;52.202;0.154;2022-07-21T12:36:07;102287.16;;;23.52;47.11
70407;BME280;57821;52.202;0.154;2022-07-21T12:38:44;102212.53;;;23.13;47.50
70407;BME280;57821;52.202;0.154;2022-07-21T12:41:13;102284.72;;;23.44;47.22
70407;BME280;57821;52.202;0.154;2022-07-21T12:43:59;102285.63;;;23.43;47.29
70407;BME280;57821;52.202;0.154;2022-07-21T12:46:29;102230.28;;;23.11;47.38
70407;BME280;57821;52.202;0.154;2022-07-21T12:49:04;102211.16;;;23.01;47.79
70407;BME280;57821;52.202;0.154;2022-07-21T12:51:39;102279.63;;;23.38;47.47
70407;BME280;57821;52.202;0.154;2022-07-21T12:54:06;102274.38;;;23.37;47.60
70407;BME280;57821;52.202;0.154;2022-07-21T12:56:34;102280.38;;;23.42;47.29
70407;BME280;57821;52.202;0.154;2022-07-21T12:59:03;102228.38;;;23.14;47.56
70407;BME280;57821;52.202;0.154;2022-07-21T13:01:31;102275.03;;;23.43;47.83
70407;BME280;57821;52.202;0.154;2022-07-21T13:03:58;102274.06;;;23.47;47.58
70407;BME280;57821;52.202;0.154;2022-07-21T13:06:25;102268.66;;;23.50;48.05
70407;BME280;57821;52.202;0.154;2022-07-21T13:08:52;102265.81;;;23.56;47.59
70407;BME280;57821;52.202;0.154;2022-07-21T13:11:20;102272.78;;;23.59;47.79
70407;BME280;57821;52.202;0.154;2022-07-21T13:13:48;102218.81;;;23.37;47.65
70407;BME280;57821;52.202;0.154;2022-07-21T13:16:18;102271.56;;;23.69;47.53
70407;BME280;57821;52.202;0.154;2022-07-21T13:18:45;102271.28;;;23.77;47.42
70407;BME280;57821;52.202;0.154;2022-07-21T13:21:12;102267.50;;;23.84;47.21
70407;BME280;57821;52.202;0.154;2022-07-21T13:23:38;102264.63;;;23.90;46.68
70407;BME280;57821;52.202;0.154;2022-07-21T13:26:05;102267.94;;;23.96;46.08